sensor_id;sensor_type;location;lat;lon;timestamp;P1;durP1;ratioP1;P2;durP2;ratioP2
20170;SDS011;10245;51.344;6.620;2022-07-29T00:00:40;5.40;;;2.13;;
20170;SDS011;10245;51.344;6.620;2022-07-29T00:03:05;4.22;;;1.75;;
20170;SDS011;10245;51.344;6.620;2022-07-29T00:05:29;3.60;;;1.60;;
20170;SDS011;10245;51.344;6.620;2022-07-29T00:07:53;3.38;;;1.58;;
20170;SDS011;10245;51.344;6.620;2022-07-29T00:10:17;7.50;;;1.75;;
20170;SDS011;10245;51.344;6.620;2022-07-29T00:12:42;2.90;;;1.92;;
20170;SDS011;10245;51.344;6.620;2022-07-29T00:15:07;6.72;;;1.92;;
20170;SDS011;10245;51.344;6.620;2022-07-29T00:17:31;4.80;;;1.65;;
20170;SDS011;10245;51.344;6.620;2022-07-29T00:19:56;5.90;;;2.05;;
20170;SDS011;10245;51.344;6.620;2022-07-29T00:22:19;4.30;;;2.08;;
20170;SDS011;10245;51.344;6.620;2022-07-29T00:24:43;7.32;;;1.88;;
20170;SDS011;10245;51.344;6.620;2022-07-29T00:27:07;4.78;;;1.88;;
20170;SDS011;10245;51.344;6.620;2022-07-29T00:29:32;6.68;;;1.95;;
20170;SDS011;10245;51.344;6.620;2022-07-29T00:31:56;8.07;;;1.83;;
20170;SDS011;10245;51.344;6.620;2022-07-29T00:34:19;6.78;;;1.77;;
20170;SDS011;10245;51.344;6.620;2022-07-29T00:37:01;5.88;;;2.15;;
20170;SDS011;10245;51.344;6.620;2022-07-29T00:39:24;4.03;;;1.60;;
20170;SDS011;10245;51.344;6.620;2022-07-29T00:41:49;7.10;;;1.80;;
20170;SDS011;10245;51.344;6.620;2022-07-29T00:44:13;7.07;;;1.90;;
20170;SDS011;10245;51.344;6.620;2022-07-29T00:46:39;5.93;;;1.92;;
20170;SDS011;10245;51.344;6.620;2022-07-29T00:49:03;8.10;;;2.10;;
20170;SDS011;10245;51.344;6.620;2022-07-29T00:51:28;5.63;;;2.00;;
20170;SDS011;10245;51.344;6.620;2022-07-29T00:53:56;5.65;;;1.67;;
20170;SDS011;10245;51.344;6.620;2022-07-29T00:56:20;7.35;;;1.85;;
20170;SDS011;10245;51.344;6.620;2022-07-29T00:58:43;7.50;;;1.77;;
20170;SDS011;10245;51.344;6.620;2022-07-29T01:01:09;4.20;;;1.73;;
20170;SDS011;10245;51.344;6.620;2022-07-29T01:03:34;7.75;;;1.92;;
20170;SDS011;10245;51.344;6.620;2022-07-29T01:05:58;5.63;;;1.95;;
20170;SDS011;10245;51.344;6.620;2022-07-29T01:08:23;10.20;;;2.00;;
20170;SDS011;10245;51.344;6.620;2022-07-29T01:10:46;5.93;;;1.80;;
20170;SDS011;10245;51.344;6.620;2022-07-29T01:13:12;6.63;;;2.00;;
20170;SDS011;10245;51.344;6.620;2022-07-29T01:15:40;6.82;;;2.28;;
20170;SDS011;10245;51.344;6.620;2022-07-29T01:18:11;6.15;;;1.92;;
20170;SDS011;10245;51.344;6.620;2022-07-29T01:20:49;6.75;;;1.98;;
20170;SDS011;10245;51.344;6.620;2022-07-29T01:23:40;7.60;;;1.85;;
20170;SDS011;10245;51.344;6.620;2022-07-29T01:26:25;5.82;;;2.03;;
20170;SDS011;10245;51.344;6.620;2022-07-29T01:29:01;9.82;;;2.30;;
20170;SDS011;10245;51.344;6.620;2022-07-29T01:31:33;6.53;;;2.13;;
20170;SDS011;10245;51.344;6.620;2022-07-29T01:34:21;6.30;;;2.58;;
20170;SDS011;10245;51.344;6.620;2022-07-29T01:36:55;5.78;;;2.35;;
20170;SDS011;10245;51.344;6.620;2022-07-29T01:39:29;6.78;;;2.72;;
20170;SDS011;10245;51.344;6.620;2022-07-29T01:41:56;9.00;;;2.70;;
20170;SDS011;10245;51.344;6.620;2022-07-29T01:44:30;7.07;;;2.50;;
20170;SDS011;10245;51.344;6.620;2022-07-29T01:46:58;6.63;;;2.55;;
20170;SDS011;10245;51.344;6.620;2022-07-29T01:49:29;4.38;;;2.42;;
20170;SDS011;10245;51.344;6.620;2022-07-29T01:52:00;4.75;;;2.50;;
20170;SDS011;10245;51.344;6.620;2022-07-29T01:54:32;3.90;;;2.08;;
20170;SDS011;10245;51.344;6.620;2022-07-29T01:57:07;7.18;;;2.55;;
20170;SDS011;10245;51.344;6.620;2022-07-29T01:59:35;8.80;;;2.30;;
20170;SDS011;10245;51.344;6.620;2022-07-29T02:02:01;5.47;;;1.77;;
20170;SDS011;10245;51.344;6.620;2022-07-29T02:04:25;5.72;;;1.77;;
20170;SDS011;10245;51.344;6.620;2022-07-29T02:06:52;3.78;;;1.70;;
20170;SDS011;10245;51.344;6.620;2022-07-29T02:09:17;5.25;;;1.75;;
20170;SDS011;10245;51.344;6.620;2022-07-29T02:11:51;6.30;;;1.73;;
20170;SDS011;10245;51.344;6.620;2022-07-29T02:14:18;3.13;;;1.42;;
20170;SDS011;10245;51.344;6.620;2022-07-29T02:16:44;3.80;;;1.90;;
20170;SDS011;10245;51.344;6.620;2022-07-29T02:19:10;3.60;;;1.50;;
20170;SDS011;10245;51.344;6.620;2022-07-29T02:21:36;4.30;;;1.70;;
20170;SDS011;10245;51.344;6.620;2022-07-29T02:24:02;5.38;;;1.60;;
20170;SDS011;10245;51.344;6.620;2022-07-29T02:26:27;5.15;;;1.65;;
20170;SDS011;10245;51.344;6.620;2022-07-29T02:28:53;6.18;;;1.70;;
20170;SDS011;10245;51.344;6.620;2022-07-29T02:31:20;5.95;;;1.38;;
20170;SDS011;10245;51.344;6.620;2022-07-29T02:33:49;5.05;;;1.70;;
20170;SDS011;10245;51.344;6.620;2022-07-29T02:36:14;7.47;;;1.92;;
20170;SDS011;10245;51.344;6.620;2022-07-29T02:38:42;3.90;;;1.52;;
20170;SDS011;10245;51.344;6.620;2022-07-29T02:41:16;4.82;;;1.60;;
20170;SDS011;10245;51.344;6.620;2022-07-29T02:43:43;4.00;;;1.80;;
20170;SDS011;10245;51.344;6.620;2022-07-29T02:46:11;3.30;;;1.50;;
20170;SDS011;10245;51.344;6.620;2022-07-29T02:48:51;3.70;;;1.40;;
20170;SDS011;10245;51.344;6.620;2022-07-29T02:51:23;2.70;;;1.40;;
20170;SDS011;10245;51.344;6.620;2022-07-29T02:54:05;3.28;;;1.27;;
20170;SDS011;10245;51.344;6.620;2022-07-29T02:56:31;6.45;;;1.55;;
20170;SDS011;10245;51.344;6.620;2022-07-29T02:58:59;3.50;;;1.85;;
20170;SDS011;10245;51.344;6.620;2022-07-29T03:01:28;6.15;;;1.33;;
20170;SDS011;10245;51.344;6.620;2022-07-29T03:04:00;3.60;;;1.23;;
20170;SDS011;10245;51.344;6.620;2022-07-29T03:06:27;6.15;;;1.40;;
20170;SDS011;10245;51.344;6.620;2022-07-29T03:08:59;3.47;;;1.35;;
20170;SDS011;10245;51.344;6.620;2022-07-29T03:11:27;3.90;;;1.58;;
20170;SDS011;10245;51.344;6.620;2022-07-29T03:14:10;2.80;;;1.58;;
20170;SDS011;10245;51.344;6.620;2022-07-29T03:16:36;6.50;;;1.70;;
20170;SDS011;10245;51.344;6.620;2022-07-29T03:19:03;4.18;;;1.42;;
20170;SDS011;10245;51.344;6.620;2022-07-29T03:21:27;6.25;;;1.50;;
20170;SDS011;10245;51.344;6.620;2022-07-29T03:23:51;4.93;;;1.50;;
20170;SDS011;10245;51.344;6.620;2022-07-29T03:26:15;4.88;;;1.50;;
20170;SDS011;10245;51.344;6.620;2022-07-29T03:28:39;4.30;;;1.40;;
20170;SDS011;10245;51.344;6.620;2022-07-29T03:31:03;5.70;;;1.48;;
20170;SDS011;10245;51.344;6.620;2022-07-29T03:33:29;3.60;;;1.48;;
20170;SDS011;10245;51.344;6.620;2022-07-29T03:35:54;2.70;;;1.20;;
20170;SDS011;10245;51.344;6.620;2022-07-29T03:38:18;5.40;;;1.30;;
20170;SDS011;10245;51.344;6.620;2022-07-29T03:40:46;3.63;;;1.60;;
20170;SDS011;10245;51.344;6.620;2022-07-29T03:43:18;4.53;;;1.40;;
20170;SDS011;10245;51.344;6.620;2022-07-29T03:45:45;4.97;;;1.60;;
20170;SDS011;10245;51.344;6.620;2022-07-29T03:48:14;4.80;;;1.42;;
20170;SDS011;10245;51.344;6.620;2022-07-29T03:50:40;6.57;;;1.58;;
20170;SDS011;10245;51.344;6.620;2022-07-29T03:53:06;4.10;;;1.50;;
20170;SDS011;10245;51.344;6.620;2022-07-29T03:55:32;5.05;;;1.35;;
20170;SDS011;10245;51.344;6.620;2022-07-29T03:58:02;1.63;;;1.45;;
20170;SDS011;10245;51.344;6.620;2022-07-29T04:00:26;6.28;;;1.70;;
20170;SDS011;10245;51.344;6.620;2022-07-29T04:02:51;4.90;;;1.90;;
20170;SDS011;10245;51.344;6.620;2022-07-29T04:05:14;3.70;;;1.80;;
20170;SDS011;10245;51.344;6.620;2022-07-29T04:07:39;4.78;;;1.70;;
20170;SDS011;10245;51.344;6.620;2022-07-29T04:10:05;4.60;;;1.88;;
20170;SDS011;10245;51.344;6.620;2022-07-29T04:12:29;4.68;;;2.03;;
20170;SDS011;10245;51.344;6.620;2022-07-29T04:14:53;7.53;;;2.30;;
20170;SDS011;10245;51.344;6.620;2022-07-29T04:17:16;9.95;;;2.10;;
20170;SDS011;10245;51.344;6.620;2022-07-29T04:19:40;4.63;;;2.03;;
20170;SDS011;10245;51.344;6.620;2022-07-29T04:22:04;3.58;;;1.73;;
20170;SDS011;10245;51.344;6.620;2022-07-29T04:24:28;3.67;;;2.03;;
20170;SDS011;10245;51.344;6.620;2022-07-29T04:26:53;8.35;;;2.35;;
20170;SDS011;10245;51.344;6.620;2022-07-29T04:29:17;5.70;;;2.05;;
20170;SDS011;10245;51.344;6.620;2022-07-29T04:31:41;3.47;;;2.15;;
20170;SDS011;10245;51.344;6.620;2022-07-29T04:34:05;5.80;;;2.15;;
20170;SDS011;10245;51.344;6.620;2022-07-29T04:36:29;5.60;;;2.13;;
20170;SDS011;10245;51.344;6.620;2022-07-29T04:38:53;6.25;;;2.30;;
20170;SDS011;10245;51.344;6.620;2022-07-29T04:41:17;4.93;;;2.40;;
20170;SDS011;10245;51.344;6.620;2022-07-29T04:43:43;4.65;;;2.22;;
20170;SDS011;10245;51.344;6.620;2022-07-29T04:46:06;4.35;;;2.17;;
20170;SDS011;10245;51.344;6.620;2022-07-29T04:48:30;6.32;;;2.65;;
20170;SDS011;10245;51.344;6.620;2022-07-29T04:50:54;4.28;;;2.35;;
20170;SDS011;10245;51.344;6.620;2022-07-29T04:53:18;2.80;;;1.83;;
20170;SDS011;10245;51.344;6.620;2022-07-29T04:55:43;6.25;;;2.92;;
20170;SDS011;10245;51.344;6.620;2022-07-29T04:58:07;5.53;;;2.50;;
20170;SDS011;10245;51.344;6.620;2022-07-29T05:00:32;6.28;;;2.90;;
20170;SDS011;10245;51.344;6.620;2022-07-29T05:02:55;6.20;;;2.75;;
20170;SDS011;10245;51.344;6.620;2022-07-29T05:05:19;5.97;;;2.50;;
20170;SDS011;10245;51.344;6.620;2022-07-29T05:07:42;7.07;;;3.10;;
20170;SDS011;10245;51.344;6.620;2022-07-29T05:10:06;5.80;;;2.97;;
20170;SDS011;10245;51.344;6.620;2022-07-29T05:12:31;7.40;;;2.35;;
20170;SDS011;10245;51.344;6.620;2022-07-29T05:14:54;6.75;;;3.72;;
20170;SDS011;10245;51.344;6.620;2022-07-29T05:17:20;7.53;;;3.70;;
20170;SDS011;10245;51.344;6.620;2022-07-29T05:19:44;10.90;;;3.55;;
20170;SDS011;10245;51.344;6.620;2022-07-29T05:22:07;9.82;;;3.45;;
20170;SDS011;10245;51.344;6.620;2022-07-29T05:24:31;7.63;;;3.45;;
20170;SDS011;10245;51.344;6.620;2022-07-29T05:26:55;8.20;;;3.90;;
20170;SDS011;10245;51.344;6.620;2022-07-29T05:29:19;5.90;;;3.10;;
20170;SDS011;10245;51.344;6.620;2022-07-29T05:32:03;9.25;;;3.85;;
20170;SDS011;10245;51.344;6.620;2022-07-29T05:34:29;6.28;;;3.30;;
20170;SDS011;10245;51.344;6.620;2022-07-29T05:36:52;7.75;;;3.40;;
20170;SDS011;10245;51.344;6.620;2022-07-29T05:39:16;7.40;;;3.75;;
20170;SDS011;10245;51.344;6.620;2022-07-29T05:41:39;10.45;;;3.58;;
20170;SDS011;10245;51.344;6.620;2022-07-29T05:44:03;6.72;;;3.58;;
20170;SDS011;10245;51.344;6.620;2022-07-29T05:46:27;7.95;;;3.55;;
20170;SDS011;10245;51.344;6.620;2022-07-29T05:48:51;8.75;;;3.88;;
20170;SDS011;10245;51.344;6.620;2022-07-29T05:51:16;7.40;;;4.32;;
20170;SDS011;10245;51.344;6.620;2022-07-29T05:53:40;9.10;;;4.75;;
20170;SDS011;10245;51.344;6.620;2022-07-29T05:56:04;10.02;;;4.63;;
20170;SDS011;10245;51.344;6.620;2022-07-29T05:58:28;13.57;;;4.10;;
20170;SDS011;10245;51.344;6.620;2022-07-29T06:00:52;8.02;;;3.92;;
20170;SDS011;10245;51.344;6.620;2022-07-29T06:03:20;7.10;;;3.70;;
20170;SDS011;10245;51.344;6.620;2022-07-29T06:05:44;9.50;;;4.10;;
20170;SDS011;10245;51.344;6.620;2022-07-29T06:08:09;7.85;;;3.60;;
20170;SDS011;10245;51.344;6.620;2022-07-29T06:10:33;8.00;;;3.25;;
20170;SDS011;10245;51.344;6.620;2022-07-29T06:12:58;5.28;;;3.00;;
20170;SDS011;10245;51.344;6.620;2022-07-29T06:15:21;6.43;;;3.28;;
20170;SDS011;10245;51.344;6.620;2022-07-29T06:17:45;7.30;;;3.53;;
20170;SDS011;10245;51.344;6.620;2022-07-29T06:20:20;7.80;;;3.40;;
20170;SDS011;10245;51.344;6.620;2022-07-29T06:22:47;8.00;;;3.70;;
20170;SDS011;10245;51.344;6.620;2022-07-29T06:25:13;7.57;;;3.70;;
20170;SDS011;10245;51.344;6.620;2022-07-29T06:27:36;6.15;;;3.47;;
20170;SDS011;10245;51.344;6.620;2022-07-29T06:30:00;6.97;;;3.60;;
20170;SDS011;10245;51.344;6.620;2022-07-29T06:32:25;6.05;;;3.22;;
20170;SDS011;10245;51.344;6.620;2022-07-29T06:34:49;7.80;;;4.10;;
20170;SDS011;10245;51.344;6.620;2022-07-29T06:37:23;7.03;;;3.70;;
20170;SDS011;10245;51.344;6.620;2022-07-29T06:39:48;7.13;;;3.75;;
20170;SDS011;10245;51.344;6.620;2022-07-29T06:42:35;6.18;;;3.38;;
20170;SDS011;10245;51.344;6.620;2022-07-29T06:44:58;6.03;;;3.55;;
20170;SDS011;10245;51.344;6.620;2022-07-29T06:47:29;7.45;;;3.60;;
20170;SDS011;10245;51.344;6.620;2022-07-29T06:49:53;6.47;;;3.92;;
20170;SDS011;10245;51.344;6.620;2022-07-29T06:52:16;8.57;;;3.72;;
20170;SDS011;10245;51.344;6.620;2022-07-29T06:54:40;9.48;;;3.78;;
20170;SDS011;10245;51.344;6.620;2022-07-29T06:57:09;9.88;;;3.88;;
20170;SDS011;10245;51.344;6.620;2022-07-29T06:59:34;5.85;;;3.80;;
20170;SDS011;10245;51.344;6.620;2022-07-29T07:01:57;9.68;;;4.20;;
20170;SDS011;10245;51.344;6.620;2022-07-29T07:04:21;7.20;;;4.10;;
20170;SDS011;10245;51.344;6.620;2022-07-29T07:06:45;8.88;;;4.03;;
20170;SDS011;10245;51.344;6.620;2022-07-29T07:09:08;7.15;;;3.85;;
20170;SDS011;10245;51.344;6.620;2022-07-29T07:11:32;6.82;;;4.00;;
20170;SDS011;10245;51.344;6.620;2022-07-29T07:13:56;10.73;;;4.43;;
20170;SDS011;10245;51.344;6.620;2022-07-29T07:16:26;7.20;;;3.92;;
20170;SDS011;10245;51.344;6.620;2022-07-29T07:18:50;6.75;;;4.47;;
20170;SDS011;10245;51.344;6.620;2022-07-29T07:21:13;9.05;;;4.18;;
20170;SDS011;10245;51.344;6.620;2022-07-29T07:23:39;5.75;;;4.00;;
20170;SDS011;10245;51.344;6.620;2022-07-29T07:26:03;8.60;;;4.35;;
20170;SDS011;10245;51.344;6.620;2022-07-29T07:28:27;8.48;;;4.45;;
20170;SDS011;10245;51.344;6.620;2022-07-29T07:30:52;9.85;;;4.15;;
20170;SDS011;10245;51.344;6.620;2022-07-29T07:33:17;8.68;;;4.93;;
20170;SDS011;10245;51.344;6.620;2022-07-29T07:35:41;10.25;;;4.55;;
20170;SDS011;10245;51.344;6.620;2022-07-29T07:38:05;13.38;;;5.60;;
20170;SDS011;10245;51.344;6.620;2022-07-29T07:40:29;8.40;;;4.75;;
20170;SDS011;10245;51.344;6.620;2022-07-29T07:42:53;9.52;;;5.80;;
20170;SDS011;10245;51.344;6.620;2022-07-29T07:45:16;11.85;;;5.93;;
20170;SDS011;10245;51.344;6.620;2022-07-29T07:47:40;8.70;;;5.57;;
20170;SDS011;10245;51.344;6.620;2022-07-29T07:50:07;11.43;;;5.68;;
20170;SDS011;10245;51.344;6.620;2022-07-29T07:52:46;9.63;;;5.38;;
20170;SDS011;10245;51.344;6.620;2022-07-29T07:55:11;10.57;;;5.15;;
20170;SDS011;10245;51.344;6.620;2022-07-29T07:57:35;13.15;;;5.85;;
20170;SDS011;10245;51.344;6.620;2022-07-29T07:59:58;9.85;;;5.53;;
20170;SDS011;10245;51.344;6.620;2022-07-29T08:02:32;8.68;;;5.30;;
20170;SDS011;10245;51.344;6.620;2022-07-29T08:04:56;9.45;;;5.35;;
20170;SDS011;10245;51.344;6.620;2022-07-29T08:07:22;10.32;;;5.40;;
20170;SDS011;10245;51.344;6.620;2022-07-29T08:09:48;12.63;;;5.38;;
20170;SDS011;10245;51.344;6.620;2022-07-29T08:12:12;10.40;;;5.25;;
20170;SDS011;10245;51.344;6.620;2022-07-29T08:14:36;13.40;;;6.00;;
20170;SDS011;10245;51.344;6.620;2022-07-29T08:17:00;7.95;;;5.25;;
20170;SDS011;10245;51.344;6.620;2022-07-29T08:19:23;8.63;;;4.85;;
20170;SDS011;10245;51.344;6.620;2022-07-29T08:21:47;14.63;;;5.25;;
20170;SDS011;10245;51.344;6.620;2022-07-29T08:24:12;13.18;;;5.50;;
20170;SDS011;10245;51.344;6.620;2022-07-29T08:26:53;11.07;;;6.00;;
20170;SDS011;10245;51.344;6.620;2022-07-29T08:29:17;12.20;;;5.97;;
20170;SDS011;10245;51.344;6.620;2022-07-29T08:31:41;8.88;;;6.05;;
20170;SDS011;10245;51.344;6.620;2022-07-29T08:34:05;10.23;;;6.15;;
20170;SDS011;10245;51.344;6.620;2022-07-29T08:36:29;9.80;;;6.13;;
20170;SDS011;10245;51.344;6.620;2022-07-29T08:38:53;10.88;;;6.10;;
20170;SDS011;10245;51.344;6.620;2022-07-29T08:41:18;10.48;;;5.90;;
20170;SDS011;10245;51.344;6.620;2022-07-29T08:43:42;11.23;;;5.00;;
20170;SDS011;10245;51.344;6.620;2022-07-29T08:46:06;10.65;;;6.22;;
20170;SDS011;10245;51.344;6.620;2022-07-29T08:48:30;11.27;;;5.93;;
20170;SDS011;10245;51.344;6.620;2022-07-29T08:50:55;11.38;;;6.60;;
20170;SDS011;10245;51.344;6.620;2022-07-29T08:53:20;11.88;;;6.05;;
20170;SDS011;10245;51.344;6.620;2022-07-29T08:55:45;9.77;;;5.63;;
20170;SDS011;10245;51.344;6.620;2022-07-29T08:58:13;9.82;;;5.53;;
20170;SDS011;10245;51.344;6.620;2022-07-29T09:00:40;12.00;;;6.07;;
20170;SDS011;10245;51.344;6.620;2022-07-29T09:03:06;16.10;;;6.07;;
20170;SDS011;10245;51.344;6.620;2022-07-29T09:05:32;10.50;;;5.47;;
20170;SDS011;10245;51.344;6.620;2022-07-29T09:08:01;18.92;;;6.30;;
20170;SDS011;10245;51.344;6.620;2022-07-29T09:10:26;9.40;;;5.90;;
20170;SDS011;10245;51.344;6.620;2022-07-29T09:12:50;15.73;;;6.20;;
20170;SDS011;10245;51.344;6.620;2022-07-29T09:15:15;11.00;;;5.63;;
20170;SDS011;10245;51.344;6.620;2022-07-29T09:17:42;9.13;;;5.78;;
20170;SDS011;10245;51.344;6.620;2022-07-29T09:20:09;12.35;;;5.97;;
20170;SDS011;10245;51.344;6.620;2022-07-29T09:22:34;15.52;;;6.30;;
20170;SDS011;10245;51.344;6.620;2022-07-29T09:25:02;10.93;;;6.50;;
20170;SDS011;10245;51.344;6.620;2022-07-29T09:27:26;12.82;;;6.63;;
20170;SDS011;10245;51.344;6.620;2022-07-29T09:29:57;10.20;;;6.20;;
20170;SDS011;10245;51.344;6.620;2022-07-29T09:32:23;12.02;;;6.55;;
20170;SDS011;10245;51.344;6.620;2022-07-29T09:34:47;12.18;;;6.57;;
20170;SDS011;10245;51.344;6.620;2022-07-29T09:37:25;10.32;;;6.55;;
20170;SDS011;10245;51.344;6.620;2022-07-29T09:39:49;9.23;;;6.65;;
20170;SDS011;10245;51.344;6.620;2022-07-29T09:42:17;14.85;;;7.72;;
20170;SDS011;10245;51.344;6.620;2022-07-29T09:44:53;11.88;;;6.35;;
20170;SDS011;10245;51.344;6.620;2022-07-29T09:47:18;12.02;;;6.97;;
20170;SDS011;10245;51.344;6.620;2022-07-29T09:49:55;8.70;;;6.50;;
20170;SDS011;10245;51.344;6.620;2022-07-29T09:52:21;13.05;;;7.05;;
20170;SDS011;10245;51.344;6.620;2022-07-29T09:54:44;8.38;;;6.43;;
20170;SDS011;10245;51.344;6.620;2022-07-29T09:57:21;11.98;;;6.65;;
20170;SDS011;10245;51.344;6.620;2022-07-29T10:00:01;9.52;;;6.50;;
20170;SDS011;10245;51.344;6.620;2022-07-29T10:02:32;13.13;;;6.38;;
20170;SDS011;10245;51.344;6.620;2022-07-29T10:04:59;13.35;;;6.32;;
20170;SDS011;10245;51.344;6.620;2022-07-29T10:07:25;14.75;;;6.32;;
20170;SDS011;10245;51.344;6.620;2022-07-29T10:09:51;9.30;;;5.65;;
20170;SDS011;10245;51.344;6.620;2022-07-29T10:12:17;11.60;;;5.60;;
20170;SDS011;10245;51.344;6.620;2022-07-29T10:14:41;11.43;;;5.30;;
20170;SDS011;10245;51.344;6.620;2022-07-29T10:17:05;10.13;;;5.63;;
20170;SDS011;10245;51.344;6.620;2022-07-29T10:19:32;13.20;;;6.47;;
20170;SDS011;10245;51.344;6.620;2022-07-29T10:21:58;9.55;;;5.13;;
20170;SDS011;10245;51.344;6.620;2022-07-29T10:24:25;10.63;;;5.95;;
20170;SDS011;10245;51.344;6.620;2022-07-29T10:26:50;11.85;;;5.90;;
20170;SDS011;10245;51.344;6.620;2022-07-29T10:29:16;14.07;;;6.25;;
20170;SDS011;10245;51.344;6.620;2022-07-29T10:31:43;8.35;;;5.55;;
20170;SDS011;10245;51.344;6.620;2022-07-29T10:34:18;9.43;;;5.65;;
20170;SDS011;10245;51.344;6.620;2022-07-29T10:36:55;8.98;;;5.55;;
20170;SDS011;10245;51.344;6.620;2022-07-29T10:39:30;8.35;;;5.28;;
20170;SDS011;10245;51.344;6.620;2022-07-29T10:42:11;7.60;;;5.55;;
20170;SDS011;10245;51.344;6.620;2022-07-29T10:44:55;12.02;;;5.60;;
20170;SDS011;10245;51.344;6.620;2022-07-29T10:47:20;6.68;;;4.47;;
20170;SDS011;10245;51.344;6.620;2022-07-29T10:49:53;7.28;;;4.70;;
20170;SDS011;10245;51.344;6.620;2022-07-29T10:52:23;11.27;;;5.30;;
20170;SDS011;10245;51.344;6.620;2022-07-29T10:54:50;12.82;;;5.68;;
20170;SDS011;10245;51.344;6.620;2022-07-29T10:57:16;8.48;;;4.25;;
20170;SDS011;10245;51.344;6.620;2022-07-29T11:02:53;11.38;;;5.68;;
20170;SDS011;10245;51.344;6.620;2022-07-29T11:05:18;15.25;;;5.80;;
20170;SDS011;10245;51.344;6.620;2022-07-29T11:10:48;10.82;;;5.55;;
20170;SDS011;10245;51.344;6.620;2022-07-29T11:13:18;11.88;;;6.50;;
20170;SDS011;10245;51.344;6.620;2022-07-29T11:16:13;14.27;;;6.53;;
20170;SDS011;10245;51.344;6.620;2022-07-29T11:21:51;14.45;;;6.72;;
20170;SDS011;10245;51.344;6.620;2022-07-29T11:24:22;12.10;;;6.15;;
20170;SDS011;10245;51.344;6.620;2022-07-29T11:27:18;11.43;;;5.80;;
20170;SDS011;10245;51.344;6.620;2022-07-29T11:29:51;13.82;;;6.22;;
20170;SDS011;10245;51.344;6.620;2022-07-29T11:32:17;10.10;;;5.45;;
20170;SDS011;10245;51.344;6.620;2022-07-29T11:35:12;13.10;;;6.00;;
20170;SDS011;10245;51.344;6.620;2022-07-29T11:37:39;9.93;;;4.72;;
20170;SDS011;10245;51.344;6.620;2022-07-29T11:40:25;10.48;;;4.38;;
20170;SDS011;10245;51.344;6.620;2022-07-29T11:42:50;9.32;;;4.60;;
20170;SDS011;10245;51.344;6.620;2022-07-29T11:45:19;10.35;;;4.70;;
20170;SDS011;10245;51.344;6.620;2022-07-29T11:48:05;7.80;;;4.30;;
20170;SDS011;10245;51.344;6.620;2022-07-29T11:50:50;9.10;;;3.72;;
20170;SDS011;10245;51.344;6.620;2022-07-29T11:53:14;6.30;;;4.07;;
20170;SDS011;10245;51.344;6.620;2022-07-29T11:55:40;7.47;;;3.70;;
20170;SDS011;10245;51.344;6.620;2022-07-29T11:58:12;8.63;;;3.58;;
20170;SDS011;10245;51.344;6.620;2022-07-29T12:00:36;6.88;;;3.67;;
20170;SDS011;10245;51.344;6.620;2022-07-29T12:03:02;6.45;;;3.58;;
20170;SDS011;10245;51.344;6.620;2022-07-29T12:05:32;7.43;;;3.30;;
20170;SDS011;10245;51.344;6.620;2022-07-29T12:08:10;6.25;;;2.88;;
20170;SDS011;10245;51.344;6.620;2022-07-29T12:10:37;6.18;;;3.75;;
20170;SDS011;10245;51.344;6.620;2022-07-29T12:13:04;9.02;;;3.50;;
20170;SDS011;10245;51.344;6.620;2022-07-29T12:15:29;6.60;;;3.03;;
20170;SDS011;10245;51.344;6.620;2022-07-29T12:18:11;9.40;;;4.15;;
20170;SDS011;10245;51.344;6.620;2022-07-29T12:20:39;7.38;;;2.75;;
20170;SDS011;10245;51.344;6.620;2022-07-29T12:23:05;5.22;;;3.08;;
20170;SDS011;10245;51.344;6.620;2022-07-29T12:25:32;5.53;;;3.13;;
20170;SDS011;10245;51.344;6.620;2022-07-29T12:27:59;5.18;;;2.65;;
20170;SDS011;10245;51.344;6.620;2022-07-29T12:30:34;7.22;;;3.25;;
20170;SDS011;10245;51.344;6.620;2022-07-29T12:33:02;5.43;;;2.97;;
20170;SDS011;10245;51.344;6.620;2022-07-29T12:35:45;7.05;;;3.35;;
20170;SDS011;10245;51.344;6.620;2022-07-29T12:38:27;6.88;;;3.25;;
20170;SDS011;10245;51.344;6.620;2022-07-29T12:40:51;4.10;;;2.80;;
20170;SDS011;10245;51.344;6.620;2022-07-29T12:43:18;7.63;;;3.20;;
20170;SDS011;10245;51.344;6.620;2022-07-29T12:45:43;6.22;;;2.80;;
20170;SDS011;10245;51.344;6.620;2022-07-29T12:48:11;3.60;;;2.97;;
20170;SDS011;10245;51.344;6.620;2022-07-29T12:50:36;4.63;;;3.00;;
20170;SDS011;10245;51.344;6.620;2022-07-29T12:53:17;10.98;;;3.42;;
20170;SDS011;10245;51.344;6.620;2022-07-29T12:55:42;6.00;;;3.22;;
20170;SDS011;10245;51.344;6.620;2022-07-29T12:58:10;6.78;;;2.75;;
20170;SDS011;10245;51.344;6.620;2022-07-29T13:00:36;5.10;;;2.88;;
20170;SDS011;10245;51.344;6.620;2022-07-29T13:03:00;7.15;;;3.10;;
20170;SDS011;10245;51.344;6.620;2022-07-29T13:05:38;7.38;;;3.15;;
20170;SDS011;10245;51.344;6.620;2022-07-29T13:08:10;6.20;;;3.10;;
20170;SDS011;10245;51.344;6.620;2022-07-29T13:10:42;8.48;;;3.42;;
20170;SDS011;10245;51.344;6.620;2022-07-29T13:13:07;6.00;;;3.20;;
20170;SDS011;10245;51.344;6.620;2022-07-29T13:15:32;5.25;;;3.50;;
20170;SDS011;10245;51.344;6.620;2022-07-29T13:17:58;5.25;;;2.92;;
20170;SDS011;10245;51.344;6.620;2022-07-29T13:20:23;5.00;;;2.80;;
20170;SDS011;10245;51.344;6.620;2022-07-29T13:22:50;5.25;;;3.40;;
20170;SDS011;10245;51.344;6.620;2022-07-29T13:25:14;6.50;;;3.22;;
20170;SDS011;10245;51.344;6.620;2022-07-29T13:27:47;4.78;;;3.13;;
20170;SDS011;10245;51.344;6.620;2022-07-29T13:30:13;6.32;;;3.25;;
20170;SDS011;10245;51.344;6.620;2022-07-29T13:32:37;4.60;;;2.38;;
20170;SDS011;10245;51.344;6.620;2022-07-29T13:35:02;7.20;;;2.50;;
20170;SDS011;10245;51.344;6.620;2022-07-29T13:37:28;5.15;;;2.28;;
20170;SDS011;10245;51.344;6.620;2022-07-29T13:39:54;3.88;;;2.28;;
20170;SDS011;10245;51.344;6.620;2022-07-29T13:42:17;2.40;;;1.70;;
20170;SDS011;10245;51.344;6.620;2022-07-29T13:44:41;5.00;;;1.98;;
20170;SDS011;10245;51.344;6.620;2022-07-29T13:47:05;6.95;;;2.42;;
20170;SDS011;10245;51.344;6.620;2022-07-29T13:49:29;5.53;;;2.60;;
20170;SDS011;10245;51.344;6.620;2022-07-29T13:51:54;5.60;;;2.17;;
20170;SDS011;10245;51.344;6.620;2022-07-29T13:54:18;4.97;;;2.70;;
20170;SDS011;10245;51.344;6.620;2022-07-29T13:56:42;6.07;;;2.15;;
20170;SDS011;10245;51.344;6.620;2022-07-29T13:59:06;5.88;;;2.10;;
20170;SDS011;10245;51.344;6.620;2022-07-29T14:01:32;6.55;;;2.42;;
20170;SDS011;10245;51.344;6.620;2022-07-29T14:03:56;5.07;;;1.88;;
20170;SDS011;10245;51.344;6.620;2022-07-29T14:06:19;5.43;;;2.30;;
20170;SDS011;10245;51.344;6.620;2022-07-29T14:08:45;6.90;;;2.30;;
20170;SDS011;10245;51.344;6.620;2022-07-29T14:11:08;7.75;;;2.72;;
20170;SDS011;10245;51.344;6.620;2022-07-29T14:13:32;5.43;;;2.50;;
20170;SDS011;10245;51.344;6.620;2022-07-29T14:15:56;4.63;;;1.88;;
20170;SDS011;10245;51.344;6.620;2022-07-29T14:18:19;8.32;;;1.90;;
20170;SDS011;10245;51.344;6.620;2022-07-29T14:20:43;3.67;;;1.90;;
20170;SDS011;10245;51.344;6.620;2022-07-29T14:23:07;9.55;;;2.63;;
20170;SDS011;10245;51.344;6.620;2022-07-29T14:25:34;11.27;;;2.53;;
20170;SDS011;10245;51.344;6.620;2022-07-29T14:28:01;4.78;;;2.00;;
20170;SDS011;10245;51.344;6.620;2022-07-29T14:30:24;8.30;;;2.40;;
20170;SDS011;10245;51.344;6.620;2022-07-29T14:32:48;7.10;;;2.30;;
20170;SDS011;10245;51.344;6.620;2022-07-29T14:35:12;10.07;;;2.33;;
20170;SDS011;10245;51.344;6.620;2022-07-29T14:37:36;6.05;;;1.98;;
20170;SDS011;10245;51.344;6.620;2022-07-29T14:40:01;3.53;;;2.05;;
20170;SDS011;10245;51.344;6.620;2022-07-29T14:42:26;3.83;;;2.70;;
20170;SDS011;10245;51.344;6.620;2022-07-29T14:44:50;5.53;;;2.22;;
20170;SDS011;10245;51.344;6.620;2022-07-29T14:47:14;6.00;;;2.17;;
20170;SDS011;10245;51.344;6.620;2022-07-29T14:49:37;8.52;;;2.47;;
20170;SDS011;10245;51.344;6.620;2022-07-29T14:52:02;8.00;;;2.65;;
20170;SDS011;10245;51.344;6.620;2022-07-29T14:54:26;5.90;;;2.45;;